createdAt,value
2023-04-24T00:00:25.979Z,99500.34
2023-04-24T00:02:58.420Z,99495.63
2023-04-24T00:05:26.713Z,99489.78
2023-04-24T00:07:55.236Z,99493.94
2023-04-24T00:10:23.364Z,99479.47
2023-04-24T00:12:51.282Z,99482.16
2023-04-24T00:15:19.200Z,99486.22
2023-04-24T00:17:47.327Z,99481.25
2023-04-24T00:20:16.721Z,99484.03
2023-04-24T00:22:44.657Z,99484.22
2023-04-24T00:25:12.573Z,99481.25
2023-04-24T00:27:40.561Z,99475.50
2023-04-24T00:30:09.608Z,99473.13
2023-04-24T00:32:37.672Z,99484.34
2023-04-24T00:35:06.864Z,99472.47
2023-04-24T00:37:36.781Z,99468.00
2023-04-24T00:40:05.382Z,99472.72
2023-04-24T00:42:33.321Z,99471.22
2023-04-24T00:45:01.363Z,99485.84
2023-04-24T00:47:29.344Z,99473.78
2023-04-24T00:49:57.288Z,99478.78
2023-04-24T00:52:26.382Z,99478.38
2023-04-24T00:54:55.861Z,99484.19
2023-04-24T00:57:24.733Z,99494.06
2023-04-24T00:59:52.966Z,99491.22
2023-04-24T01:02:21.052Z,99482.00
2023-04-24T01:04:49.089Z,99491.91
2023-04-24T01:07:17.038Z,99486.38
2023-04-24T01:09:45.266Z,99483.91
2023-04-24T01:12:14.748Z,99491.66
2023-04-24T01:14:42.665Z,99480.00
2023-04-24T01:17:10.601Z,99482.41
2023-04-24T01:19:39.055Z,99475.75
2023-04-24T01:22:12.814Z,99473.44
2023-04-24T01:24:40.909Z,99478.19
2023-04-24T01:27:08.856Z,99473.31
2023-04-24T01:29:36.831Z,99474.63
2023-04-24T01:32:05.022Z,99473.19
2023-04-24T01:34:33.029Z,99470.50
2023-04-24T01:37:01.301Z,99475.63
2023-04-24T01:39:30.596Z,99471.28
2023-04-24T01:41:58.538Z,99466.84
2023-04-24T01:44:26.458Z,99458.97
2023-04-24T01:46:55.137Z,99448.06
2023-04-24T01:49:23.139Z,99452.69
2023-04-24T01:51:51.132Z,99449.59
2023-04-24T01:54:19.111Z,99452.47
2023-04-24T01:56:48.400Z,99440.88
2023-04-24T01:59:16.537Z,99446.66
2023-04-24T02:01:44.479Z,99447.19
2023-04-24T02:04:12.613Z,99450.00
2023-04-24T02:06:40.630Z,99451.03
2023-04-24T02:09:09.058Z,99446.91
2023-04-24T02:11:36.984Z,99451.03
2023-04-24T02:14:06.339Z,99435.00
2023-04-24T02:16:34.896Z,99434.50
2023-04-24T02:19:02.910Z,99433.44
2023-04-24T02:21:31.784Z,99429.44
2023-04-24T02:23:59.765Z,99433.16
2023-04-24T02:26:28.013Z,99434.03
2023-04-24T02:28:55.927Z,99433.47
2023-04-24T02:31:25.801Z,99429.88
2023-04-24T02:33:53.725Z,99428.31
2023-04-24T02:36:22.154Z,99426.78
2023-04-24T02:38:50.076Z,99423.38
2023-04-24T02:41:18.046Z,99424.38
2023-04-24T02:43:46.231Z,99426.06
2023-04-24T02:46:14.229Z,99419.13
2023-04-24T02:48:43.582Z,99420.84
2023-04-24T02:51:11.554Z,99428.28
2023-04-24T02:53:39.533Z,99420.03
2023-04-24T02:56:07.508Z,99420.66
2023-04-24T02:58:36.563Z,99428.38
2023-04-24T03:01:04.604Z,99424.38
2023-04-24T03:03:32.803Z,99424.38
2023-04-24T03:06:02.673Z,99420.38
2023-04-24T03:08:30.655Z,99420.94
2023-04-24T03:10:58.669Z,99418.78
2023-04-24T03:13:26.748Z,99415.34
2023-04-24T03:15:55.177Z,99415.53
2023-04-24T03:18:23.242Z,99416.56
2023-04-24T03:20:51.490Z,99418.94
2023-04-24T03:23:20.840Z,99417.28
2023-04-24T03:25:49.609Z,99418.94
2023-04-24T03:28:17.589Z,99423.31
2023-04-24T03:30:45.711Z,99431.00
2023-04-24T03:33:13.634Z,99428.94
2023-04-24T03:35:42.307Z,99425.91
2023-04-24T03:38:10.292Z,99434.78
2023-04-24T03:40:39.625Z,99432.69
2023-04-24T03:43:07.570Z,99428.91
2023-04-24T03:45:35.528Z,99428.25
2023-04-24T03:48:03.520Z,99437.78
2023-04-24T03:50:31.494Z,99429.91
2023-04-24T03:52:59.411Z,99424.47
2023-04-24T03:55:27.437Z,99432.16
2023-04-24T03:57:56.772Z,99433.44
2023-04-24T04:00:24.876Z,99439.19
2023-04-24T04:02:53.070Z,99432.97
2023-04-24T04:05:21.233Z,99439.06
2023-04-24T04:07:49.336Z,99435.50
2023-04-24T04:10:18.269Z,99429.19
2023-04-24T04:12:46.250Z,99434.56
2023-04-24T04:15:15.557Z,99437.66
2023-04-24T04:17:43.527Z,99437.41
2023-04-24T04:20:12.876Z,99441.28
2023-04-24T04:22:42.667Z,99439.50
2023-04-24T04:25:12.737Z,99435.63
2023-04-24T04:27:42.667Z,99438.94
2023-04-24T04:30:11.083Z,99433.97
2023-04-24T04:32:40.431Z,99436.03
2023-04-24T04:35:08.888Z,99451.50
2023-04-24T04:37:37.019Z,99442.63
2023-04-24T04:40:07.670Z,99428.66
2023-04-24T04:42:36.206Z,99437.44
2023-04-24T04:45:05.214Z,99438.66
2023-04-24T04:47:33.767Z,99437.41
2023-04-24T04:50:04.274Z,99444.50
2023-04-24T04:52:32.237Z,99458.41
2023-04-24T04:55:00.257Z,99458.22
2023-04-24T04:57:28.218Z,99461.94
2023-04-24T04:59:56.179Z,99460.97
2023-04-24T05:02:24.157Z,99466.03
2023-04-24T05:04:52.420Z,99469.06
2023-04-24T05:07:21.978Z,99463.38
2023-04-24T05:09:49.923Z,99460.50
2023-04-24T05:12:17.924Z,99466.03
2023-04-24T05:14:45.994Z,99461.09
2023-04-24T05:17:13.931Z,99450.41
2023-04-24T05:19:42.155Z,99454.28
2023-04-24T05:22:10.837Z,99454.97
2023-04-24T05:24:40.177Z,99455.50
2023-04-24T05:27:08.183Z,99454.16
2023-04-24T05:29:36.221Z,99455.88
2023-04-24T05:32:04.192Z,99457.56
2023-04-24T05:34:32.140Z,99457.56
2023-04-24T05:37:00.104Z,99453.84
2023-04-24T05:39:28.309Z,99446.44
2023-04-24T05:41:59.351Z,99447.94
2023-04-24T05:44:27.346Z,99439.81
2023-04-24T05:46:56.455Z,99445.63
2023-04-24T05:49:24.443Z,99452.97
2023-04-24T05:51:52.368Z,99449.28
2023-04-24T05:54:20.339Z,99450.19
2023-04-24T05:56:48.339Z,99443.47
2023-04-24T05:59:17.684Z,99443.78
2023-04-24T06:01:45.853Z,99443.97
2023-04-24T06:04:15.049Z,99443.78
2023-04-24T06:06:43.215Z,99442.34
2023-04-24T06:09:11.163Z,99440.63
2023-04-24T06:11:39.130Z,99444.72
2023-04-24T06:14:07.273Z,99443.63
2023-04-24T06:16:36.643Z,99442.47
2023-04-24T06:19:04.889Z,99446.16
2023-04-24T06:21:32.809Z,99445.72
2023-04-24T06:24:01.069Z,99442.09
2023-04-24T06:26:28.984Z,99446.81
2023-04-24T06:28:56.949Z,99438.16
2023-04-24T06:31:24.953Z,99440.78
2023-04-24T06:33:54.284Z,99437.44
2023-04-24T06:36:22.179Z,99433.88
2023-04-24T06:38:50.148Z,99439.19
2023-04-24T06:41:18.069Z,99441.16
2023-04-24T06:43:46.071Z,99441.53
2023-04-24T06:46:14.079Z,99443.16
2023-04-24T06:48:42.062Z,99443.03
2023-04-24T06:51:11.412Z,99447.31
2023-04-24T06:53:39.376Z,99437.13
2023-04-24T06:56:07.374Z,99441.09
2023-04-24T06:58:35.318Z,99444.03
2023-04-24T07:01:03.267Z,99443.34
2023-04-24T07:03:32.474Z,99452.00
2023-04-24T07:06:00.724Z,99453.75
2023-04-24T07:08:31.500Z,99446.69
2023-04-24T07:10:59.460Z,99444.00
2023-04-24T07:13:27.512Z,99445.72
2023-04-24T07:15:57.294Z,99440.72
2023-04-24T07:18:25.277Z,99448.78
2023-04-24T07:20:53.217Z,99453.97
2023-04-24T07:23:21.687Z,99444.88
2023-04-24T07:25:50.977Z,99443.59
2023-04-24T07:28:19.374Z,99435.16
2023-04-24T07:30:47.341Z,99438.97
2023-04-24T07:33:15.294Z,99433.94
2023-04-24T07:35:43.269Z,99437.53
2023-04-24T07:38:11.261Z,99433.38
2023-04-24T07:40:39.418Z,99430.44
2023-04-24T07:43:08.813Z,99426.00
2023-04-24T07:45:38.617Z,99427.09
2023-04-24T07:48:06.957Z,99445.50
2023-04-24T07:50:35.878Z,99435.34
2023-04-24T07:53:03.808Z,99430.94
2023-04-24T07:55:31.736Z,99437.97
2023-04-24T07:57:59.668Z,99435.63
2023-04-24T08:00:29.046Z,99431.44
2023-04-24T08:02:57.261Z,99435.16
2023-04-24T08:05:26.793Z,99430.97
2023-04-24T08:07:55.527Z,99423.84
2023-04-24T08:10:23.585Z,99432.03
2023-04-24T08:12:51.598Z,99432.84
2023-04-24T08:15:19.595Z,99429.19
2023-04-24T08:17:49.081Z,99430.94
2023-04-24T08:20:17.024Z,99422.72
2023-04-24T08:22:45.120Z,99430.34
2023-04-24T08:25:13.128Z,99420.31
2023-04-24T08:27:41.072Z,99420.44
2023-04-24T08:30:09.674Z,99413.41
2023-04-24T08:32:38.539Z,99414.50
2023-04-24T08:35:10.257Z,99416.66
2023-04-24T08:37:38.285Z,99415.53
2023-04-24T08:40:10.647Z,99411.16
2023-04-24T08:42:38.658Z,99411.44
2023-04-24T08:45:07.573Z,99416.66
2023-04-24T08:47:35.622Z,99410.59
2023-04-24T08:50:04.399Z,99414.47
2023-04-24T08:52:34.291Z,99411.75
2023-04-24T08:55:02.571Z,99413.94
2023-04-24T08:57:30.619Z,99409.56
2023-04-24T08:59:58.634Z,99408.97
2023-04-24T09:02:27.283Z,99408.97
2023-04-24T09:04:55.491Z,99412.81
2023-04-24T09:07:23.638Z,99407.84
2023-04-24T09:09:52.951Z,99405.13
2023-04-24T09:12:21.222Z,99406.72
2023-04-24T09:14:49.176Z,99406.81
2023-04-24T09:17:17.132Z,99405.72
2023-04-24T09:19:45.147Z,99400.44
2023-04-24T09:22:13.255Z,99396.25
2023-04-24T09:24:41.207Z,99399.34
2023-04-24T09:27:11.330Z,99409.59
2023-04-24T09:29:39.319Z,99399.25
2023-04-24T09:32:20.845Z,99406.00
2023-04-24T09:34:49.492Z,99396.44
2023-04-24T09:37:29.572Z,99386.44
2023-04-24T09:40:11.181Z,99393.97
2023-04-24T09:42:40.504Z,99382.13
2023-04-24T09:45:15.228Z,99387.78
2023-04-24T09:47:43.718Z,99389.53
2023-04-24T09:50:12.985Z,99384.53
2023-04-24T09:52:45.105Z,99378.44
2023-04-24T09:55:14.331Z,99376.97
2023-04-24T09:57:51.772Z,99377.81
2023-04-24T10:00:26.307Z,99376.94
2023-04-24T10:02:58.477Z,99372.53
2023-04-24T10:05:27.588Z,99369.53
2023-04-24T10:07:59.155Z,99371.78
2023-04-24T10:10:27.362Z,99372.66
2023-04-24T10:12:56.926Z,99366.97
2023-04-24T10:15:24.884Z,99366.03
2023-04-24T10:17:54.414Z,99360.75
2023-04-24T10:20:23.114Z,99374.19
2023-04-24T10:22:54.618Z,99365.31
2023-04-24T10:25:23.248Z,99362.38
2023-04-24T10:27:51.960Z,99365.31
2023-04-24T10:30:22.132Z,99355.16
2023-04-24T10:32:50.169Z,99363.44
2023-04-24T10:35:18.271Z,99368.25
2023-04-24T10:37:48.719Z,99366.47
2023-04-24T10:40:19.636Z,99360.88
2023-04-24T10:42:49.816Z,99359.31
2023-04-24T10:45:23.204Z,99354.16
2023-04-24T10:47:55.440Z,99357.41
2023-04-24T10:50:23.471Z,99349.84
2023-04-24T10:52:52.466Z,99356.25
2023-04-24T10:55:41.607Z,99358.59
2023-04-24T10:58:09.636Z,99351.38
2023-04-24T11:00:40.261Z,99353.13
2023-04-24T11:03:08.532Z,99345.72
2023-04-24T11:05:53.105Z,99349.06
2023-04-24T11:08:25.912Z,99342.16
2023-04-24T11:11:01.592Z,99342.25
2023-04-24T11:13:30.510Z,99344.72
2023-04-24T11:16:22.726Z,99337.00
2023-04-24T11:18:55.254Z,99330.41
2023-04-24T11:21:24.358Z,99330.63
2023-04-24T11:23:52.835Z,99328.69
2023-04-24T11:26:21.382Z,99323.81
2023-04-24T11:28:49.684Z,99324.00
2023-04-24T11:31:38.108Z,99321.78
2023-04-24T11:34:10.539Z,99310.16
2023-04-24T11:36:38.759Z,99306.63
2023-04-24T11:39:06.760Z,99309.50
2023-04-24T11:41:35.631Z,99303.16
2023-04-24T11:44:04.120Z,99298.31
2023-04-24T11:46:33.241Z,99300.03
2023-04-24T11:49:02.717Z,99299.78
2023-04-24T11:51:40.646Z,99294.69
2023-04-24T11:54:16.408Z,99290.91
2023-04-24T11:56:47.306Z,99278.16
2023-04-24T11:59:15.331Z,99270.56
2023-04-24T12:01:46.809Z,99275.66
2023-04-24T12:04:16.505Z,99277.41
2023-04-24T12:07:02.328Z,99266.91
2023-04-24T12:09:30.351Z,99258.63
2023-04-24T12:11:59.038Z,99255.34
2023-04-24T12:14:27.041Z,99253.00
2023-04-24T12:16:55.053Z,99249.97
2023-04-24T12:19:24.600Z,99246.31
2023-04-24T12:22:02.639Z,99254.88
2023-04-24T12:24:31.253Z,99247.72
2023-04-24T12:26:59.246Z,99246.41
2023-04-24T12:29:27.287Z,99245.50
2023-04-24T12:31:56.403Z,99241.41
2023-04-24T12:34:28.024Z,99233.09
2023-04-24T12:36:56.114Z,99227.47
2023-04-24T12:39:27.683Z,99234.19
2023-04-24T12:41:59.260Z,99228.34
2023-04-24T12:44:35.481Z,99222.13
2023-04-24T12:47:03.635Z,99215.28
2023-04-24T12:49:33.028Z,99212.72
2023-04-24T12:52:01.023Z,99208.34
2023-04-24T12:54:28.966Z,99200.44
2023-04-24T12:56:57.724Z,99200.69
2023-04-24T12:59:25.724Z,99189.00
2023-04-24T13:01:53.736Z,99191.66
2023-04-24T13:04:21.857Z,99190.38
2023-04-24T13:06:51.269Z,99189.47
2023-04-24T13:09:19.266Z,99178.06
2023-04-24T13:11:47.250Z,99171.69
2023-04-24T13:14:15.207Z,99167.78
2023-04-24T13:16:43.232Z,99176.81
2023-04-24T13:19:11.449Z,99166.50
2023-04-24T13:21:39.385Z,99164.78
2023-04-24T13:24:08.962Z,99164.53
2023-04-24T13:26:37.077Z,99159.63
2023-04-24T13:29:05.215Z,99161.28
2023-04-24T13:31:33.247Z,99165.47
2023-04-24T13:34:01.254Z,99149.75
2023-04-24T13:36:29.279Z,99143.41
2023-04-24T13:38:57.340Z,99141.88
2023-04-24T13:41:26.718Z,99142.63
2023-04-24T13:43:54.671Z,99140.38
2023-04-24T13:46:22.693Z,99146.53
2023-04-24T13:48:50.762Z,99144.22
2023-04-24T13:51:18.734Z,99135.84
2023-04-24T13:53:46.700Z,99136.72
2023-04-24T13:56:15.206Z,99143.75
2023-04-24T13:58:44.572Z,99132.06
2023-04-24T14:01:12.545Z,99130.09
2023-04-24T14:03:40.727Z,99132.25
2023-04-24T14:06:09.068Z,99133.13
2023-04-24T14:08:37.074Z,99128.09
2023-04-24T14:11:05.514Z,99127.94
2023-04-24T14:13:33.994Z,99120.19
2023-04-24T14:16:03.337Z,99105.00
2023-04-24T14:18:31.298Z,99106.81
2023-04-24T14:20:59.255Z,99105.72
2023-04-24T14:23:27.360Z,99111.00
2023-04-24T14:25:55.395Z,99104.44
2023-04-24T14:28:23.392Z,99112.69
2023-04-24T14:30:51.417Z,99106.69
2023-04-24T14:33:20.774Z,99101.75
2023-04-24T14:35:48.858Z,99101.25
2023-04-24T14:38:16.932Z,99097.38
2023-04-24T14:41:05.479Z,99097.94
2023-04-24T14:43:33.783Z,99101.75
2023-04-24T14:46:01.786Z,99103.94
2023-04-24T14:48:31.162Z,99101.22
2023-04-24T14:50:59.461Z,99089.19
2023-04-24T14:53:27.452Z,99099.03
2023-04-24T14:55:55.853Z,99099.59
2023-04-24T14:58:23.971Z,99094.66
2023-04-24T15:00:53.076Z,99091.31
2023-04-24T15:03:21.672Z,99094.09
2023-04-24T15:05:51.475Z,99094.09
2023-04-24T15:08:19.521Z,99096.31
2023-04-24T15:10:47.481Z,99090.81
2023-04-24T15:13:15.447Z,99092.75
2023-04-24T15:15:43.468Z,99086.16
2023-04-24T15:18:12.827Z,99084.78
2023-04-24T15:20:42.361Z,99082.03
2023-04-24T15:23:11.785Z,99084.22
2023-04-24T15:25:39.897Z,99078.50
2023-04-24T15:28:07.965Z,99080.84
2023-04-24T15:30:36.172Z,99078.63
2023-04-24T15:33:04.389Z,99083.53
2023-04-24T15:35:32.462Z,99087.91
2023-04-24T15:38:00.640Z,99080.19
2023-04-24T15:40:30.171Z,99081.03
2023-04-24T15:42:58.343Z,99078.22
2023-04-24T15:45:26.393Z,99077.59
2023-04-24T15:47:54.467Z,99071.00
2023-04-24T15:50:22.852Z,99075.56
2023-04-24T15:52:50.833Z,99067.56
2023-04-24T15:55:19.014Z,99066.22
2023-04-24T15:57:48.416Z,99067.75
2023-04-24T16:00:18.386Z,99060.09
2023-04-24T16:02:46.804Z,99054.59
2023-04-24T16:05:15.111Z,99048.03
2023-04-24T16:07:43.352Z,99060.53
2023-04-24T16:10:12.303Z,99059.91
2023-04-24T16:12:40.956Z,99054.38
2023-04-24T16:15:11.415Z,99054.34
2023-04-24T16:17:39.876Z,99056.94
2023-04-24T16:20:09.676Z,99061.31
2023-04-24T16:22:38.063Z,99053.88
2023-04-24T16:25:07.270Z,99055.78
2023-04-24T16:27:35.901Z,99055.75
2023-04-24T16:30:04.514Z,99055.44
2023-04-24T16:32:34.655Z,99056.72
2023-04-24T16:35:03.170Z,99051.53
2023-04-24T16:37:31.848Z,99052.66
2023-04-24T16:40:00.463Z,99056.16
2023-04-24T16:42:29.150Z,99044.03
2023-04-24T16:44:57.845Z,99053.28
2023-04-24T16:47:26.609Z,99056.47
2023-04-24T16:49:56.667Z,99054.00
2023-04-24T16:52:25.400Z,99044.44
2023-04-24T16:54:54.098Z,99047.91
2023-04-24T16:57:22.831Z,99046.44
2023-04-24T16:59:51.602Z,99049.94
2023-04-24T17:02:20.561Z,99057.31
2023-04-24T17:04:49.536Z,99050.19
2023-04-24T17:07:19.865Z,99061.44
2023-04-24T17:09:48.510Z,99057.63
2023-04-24T17:12:17.065Z,99056.84
2023-04-24T17:14:45.721Z,99064.78
2023-04-24T17:17:15.006Z,99056.63
2023-04-24T17:19:43.689Z,99061.19
2023-04-24T17:22:12.286Z,99046.59
2023-04-24T17:24:42.202Z,99041.81
2023-04-24T17:27:14.876Z,99033.72
2023-04-24T17:29:43.893Z,99032.34
2023-04-24T17:32:12.586Z,99030.59
2023-04-24T17:34:41.448Z,99027.22
2023-04-24T17:37:10.211Z,99021.59
2023-04-24T17:39:38.735Z,99023.59
2023-04-24T17:42:08.306Z,99027.28
2023-04-24T17:44:36.387Z,99028.38
2023-04-24T17:47:04.938Z,99029.00
2023-04-24T17:49:32.904Z,99030.81
2023-04-24T17:52:00.901Z,99036.84
2023-04-24T17:54:28.933Z,99028.84
2023-04-24T17:56:56.964Z,99038.03
2023-04-24T17:59:26.630Z,99049.00
2023-04-24T18:01:54.812Z,99046.06
2023-04-24T18:04:22.981Z,99050.34
2023-04-24T18:06:51.190Z,99052.47
2023-04-24T18:09:21.114Z,99060.84
2023-04-24T18:11:50.256Z,99065.44
2023-04-24T18:14:18.286Z,99061.66
2023-04-24T18:16:47.687Z,99062.81
2023-04-24T18:19:15.774Z,99065.66
2023-04-24T18:21:43.754Z,99061.44
2023-04-24T18:24:11.740Z,99060.84
2023-04-24T18:26:39.728Z,99062.94
2023-04-24T18:29:07.765Z,99064.47
2023-04-24T18:31:35.856Z,99070.06
2023-04-24T18:34:05.409Z,99059.31
2023-04-24T18:36:33.830Z,99060.53
2023-04-24T18:39:01.830Z,99055.31
2023-04-24T18:41:29.836Z,99061.69
2023-04-24T18:43:59.341Z,99056.72
2023-04-24T18:46:27.565Z,99056.72
2023-04-24T18:48:55.802Z,99055.53
2023-04-24T18:51:25.140Z,99053.88
2023-04-24T18:53:53.234Z,99056.47
2023-04-24T18:56:21.281Z,99055.41
2023-04-24T18:58:49.704Z,99052.34
2023-04-24T19:01:18.086Z,99047.75
2023-04-24T19:03:46.157Z,99051.50
2023-04-24T19:06:14.269Z,99044.94
2023-04-24T19:08:44.908Z,99046.09
2023-04-24T19:11:12.949Z,99048.34
2023-04-24T19:13:41.956Z,99050.56
2023-04-24T19:16:09.981Z,99045.50
2023-04-24T19:18:38.045Z,99054.22
2023-04-24T19:21:06.058Z,99056.25
2023-04-24T19:23:36.645Z,99060.63
2023-04-24T19:26:06.045Z,99065.69
2023-04-24T19:28:34.031Z,99070.19
2023-04-24T19:31:01.998Z,99077.38
2023-04-24T19:33:29.977Z,99087.28
2023-04-24T19:35:58.014Z,99104.16
2023-04-24T19:38:25.992Z,99107.00
2023-04-24T19:40:53.988Z,99116.91
2023-04-24T19:43:23.395Z,99125.06
2023-04-24T19:45:51.775Z,99137.72
2023-04-24T19:48:19.972Z,99154.00
2023-04-24T19:50:48.007Z,99151.41
2023-04-24T19:53:16.038Z,99140.25
2023-04-24T19:55:44.043Z,99128.56
2023-04-24T19:58:12.073Z,99142.66
2023-04-24T20:00:42.826Z,99142.56
2023-04-24T20:03:18.731Z,99134.28
2023-04-24T20:05:58.761Z,99134.88
2023-04-24T20:08:26.766Z,99142.72
2023-04-24T20:10:57.884Z,99140.72
2023-04-24T20:13:27.688Z,99136.00
2023-04-24T20:15:57.019Z,99137.38
2023-04-24T20:18:25.025Z,99137.38
2023-04-24T20:20:56.895Z,99138.91
2023-04-24T20:23:24.866Z,99147.38
2023-04-24T20:25:57.953Z,99141.22
2023-04-24T20:28:26.802Z,99141.47
2023-04-24T20:30:56.151Z,99143.13
2023-04-24T20:33:25.835Z,99146.16
2023-04-24T20:35:53.789Z,99146.69
2023-04-24T20:38:22.580Z,99153.03
2023-04-24T20:40:57.855Z,99153.22
2023-04-24T20:43:28.643Z,99149.50
2023-04-24T20:45:59.298Z,99154.91
2023-04-24T20:48:27.302Z,99160.47
2023-04-24T20:50:56.054Z,99166.38
2023-04-24T20:53:24.150Z,99165.06
2023-04-24T20:55:52.132Z,99164.22
2023-04-24T20:58:21.065Z,99164.72
2023-04-24T21:00:49.261Z,99165.94
2023-04-24T21:03:18.921Z,99150.09
2023-04-24T21:05:47.090Z,99155.09
2023-04-24T21:08:15.191Z,99151.72
2023-04-24T21:10:43.165Z,99154.91
2023-04-24T21:13:11.137Z,99160.47
2023-04-24T21:15:39.058Z,99156.56
2023-04-24T21:18:07.136Z,99148.84
2023-04-24T21:20:36.500Z,99143.31
2023-04-24T21:23:04.456Z,99147.91
2023-04-24T21:25:32.371Z,99148.03
2023-04-24T21:28:00.584Z,99147.38
2023-04-24T21:30:28.689Z,99145.22
2023-04-24T21:32:57.035Z,99133.94
2023-04-24T21:35:24.988Z,99136.88
2023-04-24T21:37:54.296Z,99123.09
2023-04-24T21:40:22.270Z,99131.81
2023-04-24T21:42:51.862Z,99128.97
2023-04-24T21:45:20.147Z,99127.34
2023-04-24T21:47:48.133Z,99128.97
2023-04-24T21:50:16.037Z,99124.75
2023-04-24T21:52:43.939Z,99128.88
2023-04-24T21:55:13.220Z,99123.09
2023-04-24T21:57:41.170Z,99136.97
2023-04-24T22:00:11.389Z,99132.59
2023-04-24T22:02:39.775Z,99127.41
2023-04-24T22:05:09.838Z,99126.44
2023-04-24T22:07:37.803Z,99122.53
2023-04-24T22:10:06.964Z,99122.41
2023-04-24T22:12:36.272Z,99116.56
2023-04-24T22:15:04.697Z,99118.94
2023-04-24T22:17:33.664Z,99114.84
2023-04-24T22:20:01.994Z,99118.63
2023-04-24T22:22:29.929Z,99117.81
2023-04-24T22:24:57.837Z,99104.00
2023-04-24T22:27:25.827Z,99103.78
2023-04-24T22:29:55.095Z,99105.66
2023-04-24T22:32:23.088Z,99105.22
2023-04-24T22:34:50.995Z,99102.28
2023-04-24T22:37:18.949Z,99105.66
2023-04-24T22:39:46.888Z,99099.06
2023-04-24T22:42:15.734Z,99101.19
2023-04-24T22:44:43.701Z,99095.53
2023-04-24T22:47:12.960Z,99090.34
2023-04-24T22:49:41.920Z,99091.06
2023-04-24T22:52:10.941Z,99086.84
2023-04-24T22:54:38.879Z,99089.41
2023-04-24T22:57:06.864Z,99078.59
2023-04-24T22:59:34.814Z,99092.69
2023-04-24T23:02:02.763Z,99096.06
2023-04-24T23:04:32.114Z,99089.31
2023-04-24T23:07:00.075Z,99087.47
2023-04-24T23:09:28.017Z,99085.53
2023-04-24T23:11:58.002Z,99084.00
2023-04-24T23:14:25.962Z,99076.63
2023-04-24T23:16:54.025Z,99063.28
2023-04-24T23:19:22.008Z,99061.09
2023-04-24T23:21:52.022Z,99068.38
2023-04-24T23:24:19.990Z,99057.13
2023-04-24T23:26:47.934Z,99055.16
2023-04-24T23:29:15.832Z,99049.75
2023-04-24T23:31:43.770Z,99059.97
2023-04-24T23:34:11.719Z,99044.47
2023-04-24T23:36:39.602Z,99053.50
2023-04-24T23:39:08.936Z,99053.50
2023-04-24T23:41:37.635Z,99047.34
2023-04-24T23:44:05.992Z,99049.88
2023-04-24T23:46:33.918Z,99049.28
2023-04-24T23:49:01.934Z,99054.53
2023-04-24T23:51:29.897Z,99052.88
2023-04-24T23:53:57.855Z,99057.97
2023-04-24T23:56:29.247Z,99050.16
2023-04-24T23:58:57.213Z,99048.97
